sensor_id;sensor_type;location;lat;lon;timestamp;P1;durP1;ratioP1;P2;durP2;ratioP2
76612;SDS011;65507;48.454;-2.058;2023-04-27T00:00:05;17.00;;;8.27;;
76612;SDS011;65507;48.454;-2.058;2023-04-27T00:02:34;15.70;;;8.57;;
76612;SDS011;65507;48.454;-2.058;2023-04-27T00:05:01;20.17;;;8.77;;
76612;SDS011;65507;48.454;-2.058;2023-04-27T00:07:27;17.15;;;8.57;;
76612;SDS011;65507;48.454;-2.058;2023-04-27T00:09:53;18.52;;;8.50;;
76612;SDS011;65507;48.454;-2.058;2023-04-27T00:12:18;15.65;;;8.65;;
76612;SDS011;65507;48.454;-2.058;2023-04-27T00:14:44;16.13;;;9.02;;
76612;SDS011;65507;48.454;-2.058;2023-04-27T00:17:10;16.45;;;7.93;;
76612;SDS011;65507;48.454;-2.058;2023-04-27T00:19:36;15.25;;;8.02;;
76612;SDS011;65507;48.454;-2.058;2023-04-27T00:22:01;17.33;;;8.48;;
76612;SDS011;65507;48.454;-2.058;2023-04-27T00:24:27;17.98;;;8.60;;
76612;SDS011;65507;48.454;-2.058;2023-04-27T00:26:53;16.38;;;8.57;;
76612;SDS011;65507;48.454;-2.058;2023-04-27T00:29:18;17.00;;;8.63;;
76612;SDS011;65507;48.454;-2.058;2023-04-27T00:31:44;14.65;;;8.32;;
76612;SDS011;65507;48.454;-2.058;2023-04-27T00:34:10;15.88;;;8.63;;
76612;SDS011;65507;48.454;-2.058;2023-04-27T00:36:35;16.75;;;8.90;;
76612;SDS011;65507;48.454;-2.058;2023-04-27T00:39:02;17.17;;;9.43;;
76612;SDS011;65507;48.454;-2.058;2023-04-27T00:41:28;16.15;;;8.63;;
76612;SDS011;65507;48.454;-2.058;2023-04-27T00:43:53;16.02;;;8.38;;
76612;SDS011;65507;48.454;-2.058;2023-04-27T00:46:19;16.50;;;8.80;;
76612;SDS011;65507;48.454;-2.058;2023-04-27T00:48:45;18.00;;;9.50;;
76612;SDS011;65507;48.454;-2.058;2023-04-27T00:51:11;19.02;;;9.60;;
76612;SDS011;65507;48.454;-2.058;2023-04-27T00:53:37;15.80;;;8.40;;
76612;SDS011;65507;48.454;-2.058;2023-04-27T00:56:04;15.93;;;8.93;;
76612;SDS011;65507;48.454;-2.058;2023-04-27T00:58:30;17.83;;;8.40;;
76612;SDS011;65507;48.454;-2.058;2023-04-27T01:00:56;15.98;;;8.40;;
76612;SDS011;65507;48.454;-2.058;2023-04-27T01:03:23;19.70;;;8.98;;
76612;SDS011;65507;48.454;-2.058;2023-04-27T01:05:50;17.67;;;9.10;;
76612;SDS011;65507;48.454;-2.058;2023-04-27T01:08:16;21.40;;;9.38;;
76612;SDS011;65507;48.454;-2.058;2023-04-27T01:10:41;16.60;;;8.77;;
76612;SDS011;65507;48.454;-2.058;2023-04-27T01:13:07;17.10;;;9.52;;
76612;SDS011;65507;48.454;-2.058;2023-04-27T01:15:34;17.38;;;9.88;;
76612;SDS011;65507;48.454;-2.058;2023-04-27T01:18:00;17.70;;;8.80;;
76612;SDS011;65507;48.454;-2.058;2023-04-27T01:20:27;19.08;;;9.25;;
76612;SDS011;65507;48.454;-2.058;2023-04-27T01:22:54;18.75;;;9.63;;
76612;SDS011;65507;48.454;-2.058;2023-04-27T01:25:21;16.08;;;8.82;;
76612;SDS011;65507;48.454;-2.058;2023-04-27T01:27:46;16.77;;;9.23;;
76612;SDS011;65507;48.454;-2.058;2023-04-27T01:30:12;17.23;;;9.18;;
76612;SDS011;65507;48.454;-2.058;2023-04-27T01:32:39;15.07;;;7.53;;
76612;SDS011;65507;48.454;-2.058;2023-04-27T01:35:05;16.27;;;7.97;;
76612;SDS011;65507;48.454;-2.058;2023-04-27T01:37:31;17.75;;;8.13;;
76612;SDS011;65507;48.454;-2.058;2023-04-27T01:39:57;14.07;;;7.25;;
76612;SDS011;65507;48.454;-2.058;2023-04-27T01:42:23;17.00;;;7.47;;
76612;SDS011;65507;48.454;-2.058;2023-04-27T01:44:49;16.20;;;7.03;;
76612;SDS011;65507;48.454;-2.058;2023-04-27T01:47:15;30.98;;;7.43;;
76612;SDS011;65507;48.454;-2.058;2023-04-27T01:49:43;18.10;;;8.05;;
76612;SDS011;65507;48.454;-2.058;2023-04-27T01:52:09;37.35;;;8.93;;
76612;SDS011;65507;48.454;-2.058;2023-04-27T01:54:35;21.30;;;8.00;;
76612;SDS011;65507;48.454;-2.058;2023-04-27T01:57:00;13.95;;;6.80;;
76612;SDS011;65507;48.454;-2.058;2023-04-27T01:59:26;16.00;;;7.03;;
76612;SDS011;65507;48.454;-2.058;2023-04-27T02:01:53;22.10;;;7.13;;
76612;SDS011;65507;48.454;-2.058;2023-04-27T02:04:19;14.93;;;7.53;;
76612;SDS011;65507;48.454;-2.058;2023-04-27T02:06:45;14.23;;;7.20;;
76612;SDS011;65507;48.454;-2.058;2023-04-27T02:09:11;17.33;;;8.05;;
76612;SDS011;65507;48.454;-2.058;2023-04-27T02:11:36;22.02;;;7.07;;
76612;SDS011;65507;48.454;-2.058;2023-04-27T02:14:02;42.78;;;6.80;;
76612;SDS011;65507;48.454;-2.058;2023-04-27T02:16:28;58.15;;;7.60;;
76612;SDS011;65507;48.454;-2.058;2023-04-27T02:18:54;60.63;;;7.40;;
76612;SDS011;65507;48.454;-2.058;2023-04-27T02:21:19;34.83;;;7.22;;
76612;SDS011;65507;48.454;-2.058;2023-04-27T02:23:45;28.60;;;7.55;;
76612;SDS011;65507;48.454;-2.058;2023-04-27T02:26:18;32.22;;;6.05;;
76612;SDS011;65507;48.454;-2.058;2023-04-27T02:28:44;53.40;;;7.90;;
76612;SDS011;65507;48.454;-2.058;2023-04-27T02:31:11;46.78;;;7.15;;
76612;SDS011;65507;48.454;-2.058;2023-04-27T02:33:38;32.92;;;7.00;;
76612;SDS011;65507;48.454;-2.058;2023-04-27T02:36:05;20.80;;;7.13;;
76612;SDS011;65507;48.454;-2.058;2023-04-27T02:38:31;17.35;;;6.30;;
76612;SDS011;65507;48.454;-2.058;2023-04-27T02:40:57;40.13;;;6.32;;
76612;SDS011;65507;48.454;-2.058;2023-04-27T02:43:23;57.80;;;7.15;;
76612;SDS011;65507;48.454;-2.058;2023-04-27T02:45:48;48.22;;;7.30;;
76612;SDS011;65507;48.454;-2.058;2023-04-27T02:48:14;31.15;;;5.90;;
76612;SDS011;65507;48.454;-2.058;2023-04-27T02:50:40;23.55;;;6.38;;
76612;SDS011;65507;48.454;-2.058;2023-04-27T02:53:07;16.07;;;5.80;;
76612;SDS011;65507;48.454;-2.058;2023-04-27T02:55:33;34.28;;;4.80;;
76612;SDS011;65507;48.454;-2.058;2023-04-27T02:57:58;13.05;;;4.03;;
76612;SDS011;65507;48.454;-2.058;2023-04-27T03:00:24;51.25;;;5.45;;
76612;SDS011;65507;48.454;-2.058;2023-04-27T03:02:50;45.33;;;5.13;;
76612;SDS011;65507;48.454;-2.058;2023-04-27T03:05:16;25.45;;;4.05;;
76612;SDS011;65507;48.454;-2.058;2023-04-27T03:07:43;32.42;;;3.92;;
76612;SDS011;65507;48.454;-2.058;2023-04-27T03:10:09;67.07;;;7.22;;
76612;SDS011;65507;48.454;-2.058;2023-04-27T03:12:35;46.47;;;4.40;;
76612;SDS011;65507;48.454;-2.058;2023-04-27T03:15:00;67.78;;;5.25;;
76612;SDS011;65507;48.454;-2.058;2023-04-27T03:17:26;68.63;;;4.97;;
76612;SDS011;65507;48.454;-2.058;2023-04-27T03:19:52;58.88;;;4.88;;
76612;SDS011;65507;48.454;-2.058;2023-04-27T03:22:18;31.35;;;4.20;;
76612;SDS011;65507;48.454;-2.058;2023-04-27T03:24:44;62.13;;;6.00;;
76612;SDS011;65507;48.454;-2.058;2023-04-27T03:27:09;89.95;;;6.57;;
76612;SDS011;65507;48.454;-2.058;2023-04-27T03:29:35;26.08;;;5.07;;
76612;SDS011;65507;48.454;-2.058;2023-04-27T03:32:01;44.75;;;4.63;;
76612;SDS011;65507;48.454;-2.058;2023-04-27T03:34:28;23.90;;;3.22;;
76612;SDS011;65507;48.454;-2.058;2023-04-27T03:36:54;26.45;;;4.25;;
76612;SDS011;65507;48.454;-2.058;2023-04-27T03:39:20;40.97;;;3.85;;
76612;SDS011;65507;48.454;-2.058;2023-04-27T03:41:46;38.70;;;2.90;;
76612;SDS011;65507;48.454;-2.058;2023-04-27T03:44:12;24.55;;;3.00;;
76612;SDS011;65507;48.454;-2.058;2023-04-27T03:46:38;39.78;;;4.03;;
76612;SDS011;65507;48.454;-2.058;2023-04-27T03:49:04;43.53;;;4.05;;
76612;SDS011;65507;48.454;-2.058;2023-04-27T03:51:30;17.88;;;2.05;;
76612;SDS011;65507;48.454;-2.058;2023-04-27T03:53:57;20.05;;;2.55;;
76612;SDS011;65507;48.454;-2.058;2023-04-27T03:56:23;46.63;;;3.47;;
76612;SDS011;65507;48.454;-2.058;2023-04-27T03:58:48;77.60;;;4.43;;
76612;SDS011;65507;48.454;-2.058;2023-04-27T04:01:14;38.78;;;3.58;;
76612;SDS011;65507;48.454;-2.058;2023-04-27T04:03:40;35.35;;;3.63;;
76612;SDS011;65507;48.454;-2.058;2023-04-27T04:06:06;47.90;;;6.07;;
76612;SDS011;65507;48.454;-2.058;2023-04-27T04:08:32;24.85;;;2.63;;
76612;SDS011;65507;48.454;-2.058;2023-04-27T04:10:58;24.58;;;2.60;;
76612;SDS011;65507;48.454;-2.058;2023-04-27T04:13:24;48.72;;;5.22;;
76612;SDS011;65507;48.454;-2.058;2023-04-27T04:15:59;35.22;;;2.90;;
76612;SDS011;65507;48.454;-2.058;2023-04-27T04:18:28;45.28;;;2.92;;
76612;SDS011;65507;48.454;-2.058;2023-04-27T04:20:54;32.15;;;2.90;;
76612;SDS011;65507;48.454;-2.058;2023-04-27T04:23:20;79.75;;;5.97;;
76612;SDS011;65507;48.454;-2.058;2023-04-27T04:25:45;49.42;;;3.50;;
76612;SDS011;65507;48.454;-2.058;2023-04-27T04:28:14;31.67;;;3.38;;
76612;SDS011;65507;48.454;-2.058;2023-04-27T04:30:40;72.53;;;5.55;;
76612;SDS011;65507;48.454;-2.058;2023-04-27T04:33:07;95.90;;;7.55;;
76612;SDS011;65507;48.454;-2.058;2023-04-27T04:35:33;106.75;;;7.40;;
76612;SDS011;65507;48.454;-2.058;2023-04-27T04:38:01;83.18;;;5.28;;
76612;SDS011;65507;48.454;-2.058;2023-04-27T04:40:27;59.28;;;5.03;;
76612;SDS011;65507;48.454;-2.058;2023-04-27T04:42:53;74.20;;;4.70;;
76612;SDS011;65507;48.454;-2.058;2023-04-27T04:45:18;121.60;;;7.28;;
76612;SDS011;65507;48.454;-2.058;2023-04-27T04:47:44;81.53;;;5.50;;
76612;SDS011;65507;48.454;-2.058;2023-04-27T04:50:11;77.00;;;6.18;;
76612;SDS011;65507;48.454;-2.058;2023-04-27T04:52:37;101.57;;;5.88;;
76612;SDS011;65507;48.454;-2.058;2023-04-27T04:55:03;102.25;;;7.43;;
76612;SDS011;65507;48.454;-2.058;2023-04-27T04:57:29;92.72;;;8.45;;
76612;SDS011;65507;48.454;-2.058;2023-04-27T04:59:55;110.97;;;6.47;;
76612;SDS011;65507;48.454;-2.058;2023-04-27T05:02:22;78.50;;;6.20;;
76612;SDS011;65507;48.454;-2.058;2023-04-27T05:04:47;105.65;;;5.90;;
76612;SDS011;65507;48.454;-2.058;2023-04-27T05:07:13;182.95;;;10.30;;
76612;SDS011;65507;48.454;-2.058;2023-04-27T05:09:39;56.67;;;4.22;;
76612;SDS011;65507;48.454;-2.058;2023-04-27T05:12:04;58.85;;;5.45;;
76612;SDS011;65507;48.454;-2.058;2023-04-27T05:14:31;142.60;;;8.02;;
76612;SDS011;65507;48.454;-2.058;2023-04-27T05:16:57;233.60;;;10.30;;
76612;SDS011;65507;48.454;-2.058;2023-04-27T05:19:22;198.65;;;7.57;;
76612;SDS011;65507;48.454;-2.058;2023-04-27T05:21:49;77.20;;;4.47;;
76612;SDS011;65507;48.454;-2.058;2023-04-27T05:24:18;113.78;;;6.03;;
76612;SDS011;65507;48.454;-2.058;2023-04-27T05:26:44;79.50;;;4.65;;
76612;SDS011;65507;48.454;-2.058;2023-04-27T05:29:09;64.68;;;5.07;;
76612;SDS011;65507;48.454;-2.058;2023-04-27T05:31:35;88.15;;;6.28;;
76612;SDS011;65507;48.454;-2.058;2023-04-27T05:34:01;66.68;;;4.82;;
76612;SDS011;65507;48.454;-2.058;2023-04-27T05:36:27;94.47;;;5.78;;
76612;SDS011;65507;48.454;-2.058;2023-04-27T05:38:53;78.88;;;4.35;;
76612;SDS011;65507;48.454;-2.058;2023-04-27T05:41:19;78.35;;;4.25;;
76612;SDS011;65507;48.454;-2.058;2023-04-27T05:43:45;106.47;;;7.30;;
76612;SDS011;65507;48.454;-2.058;2023-04-27T05:46:14;51.33;;;3.85;;
76612;SDS011;65507;48.454;-2.058;2023-04-27T05:48:40;41.05;;;3.47;;
76612;SDS011;65507;48.454;-2.058;2023-04-27T05:51:05;42.42;;;3.83;;
76612;SDS011;65507;48.454;-2.058;2023-04-27T05:53:32;50.33;;;2.90;;
76612;SDS011;65507;48.454;-2.058;2023-04-27T05:55:58;62.65;;;8.00;;
76612;SDS011;65507;48.454;-2.058;2023-04-27T05:58:25;65.30;;;4.17;;
76612;SDS011;65507;48.454;-2.058;2023-04-27T06:00:52;15.93;;;4.13;;
76612;SDS011;65507;48.454;-2.058;2023-04-27T06:03:18;18.63;;;2.58;;
76612;SDS011;65507;48.454;-2.058;2023-04-27T06:05:43;9.57;;;2.67;;
76612;SDS011;65507;48.454;-2.058;2023-04-27T06:08:10;19.73;;;2.78;;
76612;SDS011;65507;48.454;-2.058;2023-04-27T06:10:36;19.50;;;2.27;;
76612;SDS011;65507;48.454;-2.058;2023-04-27T06:13:02;17.30;;;4.80;;
76612;SDS011;65507;48.454;-2.058;2023-04-27T06:15:28;5.60;;;2.10;;
76612;SDS011;65507;48.454;-2.058;2023-04-27T06:17:54;7.20;;;2.03;;
76612;SDS011;65507;48.454;-2.058;2023-04-27T06:20:20;6.43;;;1.65;;
76612;SDS011;65507;48.454;-2.058;2023-04-27T06:22:46;3.92;;;1.70;;
76612;SDS011;65507;48.454;-2.058;2023-04-27T06:25:12;6.30;;;1.90;;
76612;SDS011;65507;48.454;-2.058;2023-04-27T06:27:37;4.07;;;2.65;;
76612;SDS011;65507;48.454;-2.058;2023-04-27T06:30:03;4.05;;;1.90;;
76612;SDS011;65507;48.454;-2.058;2023-04-27T06:32:30;3.22;;;1.70;;
76612;SDS011;65507;48.454;-2.058;2023-04-27T06:34:56;2.42;;;1.70;;
76612;SDS011;65507;48.454;-2.058;2023-04-27T06:37:21;2.47;;;1.42;;
76612;SDS011;65507;48.454;-2.058;2023-04-27T06:39:47;6.68;;;1.90;;
76612;SDS011;65507;48.454;-2.058;2023-04-27T06:42:13;2.33;;;1.45;;
76612;SDS011;65507;48.454;-2.058;2023-04-27T06:44:38;3.13;;;1.70;;
76612;SDS011;65507;48.454;-2.058;2023-04-27T06:47:04;3.83;;;1.88;;
76612;SDS011;65507;48.454;-2.058;2023-04-27T06:49:30;4.57;;;2.50;;
76612;SDS011;65507;48.454;-2.058;2023-04-27T06:51:56;3.72;;;2.40;;
76612;SDS011;65507;48.454;-2.058;2023-04-27T06:54:22;4.65;;;2.53;;
76612;SDS011;65507;48.454;-2.058;2023-04-27T06:56:47;3.63;;;2.00;;
76612;SDS011;65507;48.454;-2.058;2023-04-27T06:59:13;5.65;;;2.35;;
76612;SDS011;65507;48.454;-2.058;2023-04-27T07:01:39;3.65;;;2.08;;
76612;SDS011;65507;48.454;-2.058;2023-04-27T07:04:04;7.78;;;3.97;;
76612;SDS011;65507;48.454;-2.058;2023-04-27T07:06:30;7.03;;;3.63;;
76612;SDS011;65507;48.454;-2.058;2023-04-27T07:08:57;5.28;;;3.17;;
76612;SDS011;65507;48.454;-2.058;2023-04-27T07:11:23;10.68;;;2.45;;
76612;SDS011;65507;48.454;-2.058;2023-04-27T07:13:48;10.30;;;2.40;;
76612;SDS011;65507;48.454;-2.058;2023-04-27T07:16:14;3.42;;;2.28;;
76612;SDS011;65507;48.454;-2.058;2023-04-27T07:18:41;3.72;;;2.22;;
76612;SDS011;65507;48.454;-2.058;2023-04-27T07:21:06;5.43;;;2.42;;
76612;SDS011;65507;48.454;-2.058;2023-04-27T07:23:32;5.50;;;2.40;;
76612;SDS011;65507;48.454;-2.058;2023-04-27T07:25:58;5.85;;;2.53;;
76612;SDS011;65507;48.454;-2.058;2023-04-27T07:28:24;7.05;;;2.70;;
76612;SDS011;65507;48.454;-2.058;2023-04-27T07:30:50;5.00;;;2.60;;
76612;SDS011;65507;48.454;-2.058;2023-04-27T07:33:15;6.13;;;2.70;;
76612;SDS011;65507;48.454;-2.058;2023-04-27T07:35:41;5.15;;;2.20;;
76612;SDS011;65507;48.454;-2.058;2023-04-27T07:38:07;6.22;;;2.53;;
76612;SDS011;65507;48.454;-2.058;2023-04-27T07:40:33;6.93;;;2.67;;
76612;SDS011;65507;48.454;-2.058;2023-04-27T07:42:59;7.47;;;2.47;;
76612;SDS011;65507;48.454;-2.058;2023-04-27T07:45:25;4.72;;;2.80;;
76612;SDS011;65507;48.454;-2.058;2023-04-27T07:47:58;6.07;;;2.58;;
76612;SDS011;65507;48.454;-2.058;2023-04-27T07:50:24;6.25;;;3.20;;
76612;SDS011;65507;48.454;-2.058;2023-04-27T07:52:51;5.95;;;3.03;;
76612;SDS011;65507;48.454;-2.058;2023-04-27T07:55:18;4.70;;;2.85;;
76612;SDS011;65507;48.454;-2.058;2023-04-27T07:57:45;7.43;;;3.10;;
76612;SDS011;65507;48.454;-2.058;2023-04-27T08:00:11;5.65;;;2.95;;
76612;SDS011;65507;48.454;-2.058;2023-04-27T08:02:37;4.07;;;2.33;;
76612;SDS011;65507;48.454;-2.058;2023-04-27T08:05:03;5.35;;;2.60;;
76612;SDS011;65507;48.454;-2.058;2023-04-27T08:07:29;5.75;;;2.67;;
76612;SDS011;65507;48.454;-2.058;2023-04-27T08:09:56;5.20;;;2.80;;
76612;SDS011;65507;48.454;-2.058;2023-04-27T08:12:21;6.50;;;2.63;;
76612;SDS011;65507;48.454;-2.058;2023-04-27T08:14:47;8.10;;;3.28;;
76612;SDS011;65507;48.454;-2.058;2023-04-27T08:17:13;7.28;;;3.53;;
76612;SDS011;65507;48.454;-2.058;2023-04-27T08:19:39;7.55;;;4.07;;
76612;SDS011;65507;48.454;-2.058;2023-04-27T08:22:05;10.50;;;4.60;;
76612;SDS011;65507;48.454;-2.058;2023-04-27T08:24:31;10.25;;;4.53;;
76612;SDS011;65507;48.454;-2.058;2023-04-27T08:26:56;11.40;;;5.22;;
76612;SDS011;65507;48.454;-2.058;2023-04-27T08:29:22;10.00;;;5.32;;
76612;SDS011;65507;48.454;-2.058;2023-04-27T08:31:48;9.32;;;4.70;;
76612;SDS011;65507;48.454;-2.058;2023-04-27T08:34:13;10.68;;;5.22;;
76612;SDS011;65507;48.454;-2.058;2023-04-27T08:36:39;8.30;;;4.90;;
76612;SDS011;65507;48.454;-2.058;2023-04-27T08:39:05;12.13;;;5.20;;
76612;SDS011;65507;48.454;-2.058;2023-04-27T08:41:32;9.15;;;4.47;;
76612;SDS011;65507;48.454;-2.058;2023-04-27T08:43:58;9.15;;;5.03;;
76612;SDS011;65507;48.454;-2.058;2023-04-27T08:46:24;10.05;;;5.10;;
76612;SDS011;65507;48.454;-2.058;2023-04-27T08:48:55;11.32;;;4.30;;
76612;SDS011;65507;48.454;-2.058;2023-04-27T08:51:21;8.80;;;4.35;;
76612;SDS011;65507;48.454;-2.058;2023-04-27T08:53:48;11.82;;;5.30;;
76612;SDS011;65507;48.454;-2.058;2023-04-27T08:56:19;10.68;;;4.57;;
76612;SDS011;65507;48.454;-2.058;2023-04-27T08:58:47;11.52;;;5.95;;
76612;SDS011;65507;48.454;-2.058;2023-04-27T09:01:13;20.88;;;10.60;;
76612;SDS011;65507;48.454;-2.058;2023-04-27T09:03:40;8.80;;;4.80;;
76612;SDS011;65507;48.454;-2.058;2023-04-27T09:06:06;13.97;;;12.10;;
76612;SDS011;65507;48.454;-2.058;2023-04-27T09:08:56;8.85;;;4.50;;
76612;SDS011;65507;48.454;-2.058;2023-04-27T09:13:58;7.93;;;4.25;;
76612;SDS011;65507;48.454;-2.058;2023-04-27T09:16:26;8.40;;;4.38;;
76612;SDS011;65507;48.454;-2.058;2023-04-27T09:18:53;24.10;;;10.60;;
76612;SDS011;65507;48.454;-2.058;2023-04-27T09:21:21;11.82;;;5.30;;
76612;SDS011;65507;48.454;-2.058;2023-04-27T09:23:47;8.77;;;4.65;;
76612;SDS011;65507;48.454;-2.058;2023-04-27T09:26:18;11.25;;;4.95;;
76612;SDS011;65507;48.454;-2.058;2023-04-27T09:28:51;7.85;;;4.22;;
76612;SDS011;65507;48.454;-2.058;2023-04-27T09:31:18;10.80;;;4.95;;
76612;SDS011;65507;48.454;-2.058;2023-04-27T09:33:44;8.52;;;4.55;;
76612;SDS011;65507;48.454;-2.058;2023-04-27T09:36:19;7.00;;;4.50;;
76612;SDS011;65507;48.454;-2.058;2023-04-27T09:38:45;6.78;;;4.13;;
76612;SDS011;65507;48.454;-2.058;2023-04-27T09:41:11;8.38;;;4.25;;
76612;SDS011;65507;48.454;-2.058;2023-04-27T09:43:37;9.35;;;4.53;;
76612;SDS011;65507;48.454;-2.058;2023-04-27T09:46:03;8.32;;;4.60;;
76612;SDS011;65507;48.454;-2.058;2023-04-27T09:48:30;8.02;;;3.78;;
76612;SDS011;65507;48.454;-2.058;2023-04-27T09:50:55;6.03;;;3.70;;
76612;SDS011;65507;48.454;-2.058;2023-04-27T09:53:26;9.07;;;4.47;;
76612;SDS011;65507;48.454;-2.058;2023-04-27T10:01:55;6.15;;;3.35;;
76612;SDS011;65507;48.454;-2.058;2023-04-27T10:07:10;6.65;;;3.17;;
76612;SDS011;65507;48.454;-2.058;2023-04-27T10:09:45;5.18;;;3.30;;
76612;SDS011;65507;48.454;-2.058;2023-04-27T10:12:21;5.45;;;3.50;;
76612;SDS011;65507;48.454;-2.058;2023-04-27T10:14:55;4.75;;;3.22;;
76612;SDS011;65507;48.454;-2.058;2023-04-27T10:19:56;4.13;;;2.33;;
76612;SDS011;65507;48.454;-2.058;2023-04-27T10:22:23;4.68;;;2.78;;
76612;SDS011;65507;48.454;-2.058;2023-04-27T10:25:10;4.05;;;2.38;;
76612;SDS011;65507;48.454;-2.058;2023-04-27T10:27:40;3.85;;;2.42;;
76612;SDS011;65507;48.454;-2.058;2023-04-27T10:30:09;3.97;;;2.28;;
76612;SDS011;65507;48.454;-2.058;2023-04-27T10:32:36;4.07;;;2.20;;
76612;SDS011;65507;48.454;-2.058;2023-04-27T10:35:04;2.80;;;1.58;;
76612;SDS011;65507;48.454;-2.058;2023-04-27T10:40:31;2.30;;;1.70;;
76612;SDS011;65507;48.454;-2.058;2023-04-27T10:45:42;3.53;;;1.80;;
76612;SDS011;65507;48.454;-2.058;2023-04-27T10:48:10;3.88;;;2.30;;
76612;SDS011;65507;48.454;-2.058;2023-04-27T10:50:38;7.40;;;4.43;;
76612;SDS011;65507;48.454;-2.058;2023-04-27T10:53:05;4.40;;;2.35;;
76612;SDS011;65507;48.454;-2.058;2023-04-27T10:55:31;2.03;;;1.70;;
76612;SDS011;65507;48.454;-2.058;2023-04-27T10:57:58;2.25;;;1.67;;
76612;SDS011;65507;48.454;-2.058;2023-04-27T11:00:26;2.42;;;1.75;;
76612;SDS011;65507;48.454;-2.058;2023-04-27T11:02:53;2.72;;;1.73;;
76612;SDS011;65507;48.454;-2.058;2023-04-27T11:05:21;2.10;;;1.50;;
76612;SDS011;65507;48.454;-2.058;2023-04-27T11:07:50;2.33;;;1.50;;
76612;SDS011;65507;48.454;-2.058;2023-04-27T11:10:16;2.17;;;1.33;;
76612;SDS011;65507;48.454;-2.058;2023-04-27T11:12:43;3.08;;;1.70;;
76612;SDS011;65507;48.454;-2.058;2023-04-27T11:15:09;2.08;;;1.45;;
76612;SDS011;65507;48.454;-2.058;2023-04-27T11:17:36;1.95;;;1.42;;
76612;SDS011;65507;48.454;-2.058;2023-04-27T11:20:02;1.85;;;1.40;;
76612;SDS011;65507;48.454;-2.058;2023-04-27T11:22:31;2.08;;;1.65;;
76612;SDS011;65507;48.454;-2.058;2023-04-27T11:24:57;4.60;;;2.67;;
76612;SDS011;65507;48.454;-2.058;2023-04-27T11:27:22;4.70;;;2.50;;
76612;SDS011;65507;48.454;-2.058;2023-04-27T11:29:49;7.27;;;3.50;;
76612;SDS011;65507;48.454;-2.058;2023-04-27T11:32:21;2.80;;;2.03;;
76612;SDS011;65507;48.454;-2.058;2023-04-27T11:34:50;2.53;;;1.75;;
76612;SDS011;65507;48.454;-2.058;2023-04-27T11:37:24;2.45;;;1.70;;
76612;SDS011;65507;48.454;-2.058;2023-04-27T11:39:51;2.58;;;1.60;;
76612;SDS011;65507;48.454;-2.058;2023-04-27T11:42:22;2.58;;;1.52;;
76612;SDS011;65507;48.454;-2.058;2023-04-27T11:47:19;2.05;;;1.52;;
76612;SDS011;65507;48.454;-2.058;2023-04-27T11:49:56;4.18;;;1.65;;
76612;SDS011;65507;48.454;-2.058;2023-04-27T11:52:37;2.80;;;1.70;;
76612;SDS011;65507;48.454;-2.058;2023-04-27T11:55:04;2.63;;;1.58;;
76612;SDS011;65507;48.454;-2.058;2023-04-27T11:57:33;2.33;;;1.98;;
76612;SDS011;65507;48.454;-2.058;2023-04-27T12:00:00;2.67;;;1.95;;
76612;SDS011;65507;48.454;-2.058;2023-04-27T12:02:34;2.50;;;1.70;;
76612;SDS011;65507;48.454;-2.058;2023-04-27T12:05:02;3.27;;;2.43;;
76612;SDS011;65507;48.454;-2.058;2023-04-27T12:07:28;3.08;;;1.95;;
76612;SDS011;65507;48.454;-2.058;2023-04-27T12:09:56;2.92;;;1.92;;
76612;SDS011;65507;48.454;-2.058;2023-04-27T12:12:22;9.00;;;4.63;;
76612;SDS011;65507;48.454;-2.058;2023-04-27T12:14:48;2.95;;;2.10;;
76612;SDS011;65507;48.454;-2.058;2023-04-27T12:17:14;2.17;;;1.58;;
76612;SDS011;65507;48.454;-2.058;2023-04-27T12:19:41;2.83;;;2.08;;
76612;SDS011;65507;48.454;-2.058;2023-04-27T12:22:07;2.47;;;2.10;;
76612;SDS011;65507;48.454;-2.058;2023-04-27T12:24:33;2.75;;;2.10;;
76612;SDS011;65507;48.454;-2.058;2023-04-27T12:26:58;2.45;;;2.00;;
76612;SDS011;65507;48.454;-2.058;2023-04-27T12:29:25;3.20;;;2.17;;
76612;SDS011;65507;48.454;-2.058;2023-04-27T12:31:51;3.28;;;1.70;;
76612;SDS011;65507;48.454;-2.058;2023-04-27T12:34:17;3.30;;;1.95;;
76612;SDS011;65507;48.454;-2.058;2023-04-27T12:36:43;2.57;;;2.20;;
76612;SDS011;65507;48.454;-2.058;2023-04-27T12:39:13;2.47;;;1.98;;
76612;SDS011;65507;48.454;-2.058;2023-04-27T12:41:44;2.90;;;2.20;;
76612;SDS011;65507;48.454;-2.058;2023-04-27T12:44:13;4.55;;;2.20;;
76612;SDS011;65507;48.454;-2.058;2023-04-27T12:46:40;2.13;;;1.92;;
76612;SDS011;65507;48.454;-2.058;2023-04-27T12:49:06;2.67;;;2.20;;
76612;SDS011;65507;48.454;-2.058;2023-04-27T12:51:33;3.27;;;2.43;;
76612;SDS011;65507;48.454;-2.058;2023-04-27T12:53:59;2.72;;;2.15;;
76612;SDS011;65507;48.454;-2.058;2023-04-27T12:56:26;2.60;;;1.98;;
76612;SDS011;65507;48.454;-2.058;2023-04-27T12:58:53;3.40;;;2.55;;
76612;SDS011;65507;48.454;-2.058;2023-04-27T13:01:22;3.72;;;2.15;;
76612;SDS011;65507;48.454;-2.058;2023-04-27T13:03:52;3.20;;;2.40;;
76612;SDS011;65507;48.454;-2.058;2023-04-27T13:06:27;3.42;;;2.50;;
76612;SDS011;65507;48.454;-2.058;2023-04-27T13:08:55;3.50;;;2.25;;
76612;SDS011;65507;48.454;-2.058;2023-04-27T13:11:21;2.85;;;2.28;;
76612;SDS011;65507;48.454;-2.058;2023-04-27T13:13:48;2.85;;;2.35;;
76612;SDS011;65507;48.454;-2.058;2023-04-27T13:16:13;3.45;;;2.47;;
76612;SDS011;65507;48.454;-2.058;2023-04-27T13:18:40;3.22;;;2.22;;
76612;SDS011;65507;48.454;-2.058;2023-04-27T13:21:11;4.30;;;2.65;;
76612;SDS011;65507;48.454;-2.058;2023-04-27T13:23:37;3.08;;;2.53;;
76612;SDS011;65507;48.454;-2.058;2023-04-27T13:26:02;3.00;;;2.55;;
76612;SDS011;65507;48.454;-2.058;2023-04-27T13:28:30;2.83;;;2.20;;
76612;SDS011;65507;48.454;-2.058;2023-04-27T13:30:56;3.90;;;2.67;;
76612;SDS011;65507;48.454;-2.058;2023-04-27T13:33:22;6.72;;;4.15;;
76612;SDS011;65507;48.454;-2.058;2023-04-27T13:35:48;5.03;;;3.30;;
76612;SDS011;65507;48.454;-2.058;2023-04-27T13:38:15;2.97;;;2.45;;
76612;SDS011;65507;48.454;-2.058;2023-04-27T13:40:41;3.33;;;2.63;;
76612;SDS011;65507;48.454;-2.058;2023-04-27T13:43:06;2.72;;;2.30;;
76612;SDS011;65507;48.454;-2.058;2023-04-27T13:45:32;3.60;;;2.30;;
76612;SDS011;65507;48.454;-2.058;2023-04-27T13:47:57;3.15;;;2.47;;
76612;SDS011;65507;48.454;-2.058;2023-04-27T13:50:23;5.63;;;2.72;;
76612;SDS011;65507;48.454;-2.058;2023-04-27T13:52:49;2.67;;;2.40;;
76612;SDS011;65507;48.454;-2.058;2023-04-27T13:55:14;2.85;;;2.60;;
76612;SDS011;65507;48.454;-2.058;2023-04-27T13:57:40;2.67;;;2.47;;
76612;SDS011;65507;48.454;-2.058;2023-04-27T14:00:06;2.78;;;2.50;;
76612;SDS011;65507;48.454;-2.058;2023-04-27T14:02:35;3.03;;;2.60;;
76612;SDS011;65507;48.454;-2.058;2023-04-27T14:05:01;3.28;;;2.45;;
76612;SDS011;65507;48.454;-2.058;2023-04-27T14:07:26;2.90;;;2.30;;
76612;SDS011;65507;48.454;-2.058;2023-04-27T14:09:52;2.67;;;2.45;;
76612;SDS011;65507;48.454;-2.058;2023-04-27T14:12:18;3.28;;;2.53;;
76612;SDS011;65507;48.454;-2.058;2023-04-27T14:14:44;3.63;;;3.10;;
76612;SDS011;65507;48.454;-2.058;2023-04-27T14:17:10;4.78;;;3.70;;
76612;SDS011;65507;48.454;-2.058;2023-04-27T14:19:36;4.43;;;3.80;;
76612;SDS011;65507;48.454;-2.058;2023-04-27T14:22:01;5.00;;;3.65;;
76612;SDS011;65507;48.454;-2.058;2023-04-27T14:24:28;4.03;;;3.50;;
76612;SDS011;65507;48.454;-2.058;2023-04-27T14:26:54;8.90;;;5.88;;
76612;SDS011;65507;48.454;-2.058;2023-04-27T14:29:20;9.68;;;7.28;;
76612;SDS011;65507;48.454;-2.058;2023-04-27T14:31:45;5.03;;;3.75;;
76612;SDS011;65507;48.454;-2.058;2023-04-27T14:34:12;4.20;;;3.63;;
76612;SDS011;65507;48.454;-2.058;2023-04-27T14:36:38;3.28;;;2.97;;
76612;SDS011;65507;48.454;-2.058;2023-04-27T14:39:04;3.53;;;3.15;;
76612;SDS011;65507;48.454;-2.058;2023-04-27T14:41:32;3.72;;;3.20;;
76612;SDS011;65507;48.454;-2.058;2023-04-27T14:43:59;3.05;;;2.75;;
76612;SDS011;65507;48.454;-2.058;2023-04-27T14:46:25;3.83;;;2.60;;